Aérodrome :
LOGIN :

S'inscrire | Disclaimer

   EN    FR    IT 

 










Légende :    VFR   VFR Marginal   IFR   IFR Intensif   IFR Très Intensif
Visi : 
Plafond : 
>= 8 km
>= 3000ft
5 à 8 km
1000 à 3000 ft
1500m à 5 km
500 à 1000 ft
800 à 1500m
200 à 500 ft
< 800m
< 200 ft
Symboles :   Orages  Brouillard  Fortes neiges  Fortes précipitations  Vent > 20 kt
SIGMETs :   Divers  Orages  Givrage  Turbulence  Onde Orograph.  Cendres Volcan.






- Altitude de l'aérodrome : -11 ft
- Code IATA : AMS


EHAM - Amsterdam Schiphol

DERNIER METAR :
  • 270625Z 01006KT 330V040 CAVOK 16/09 Q1034 NOSIG

METARs EXPIRÉS :
  • 270555Z 36005KT 320V040 9999 FEW042 14/10 Q1034 NOSIG
  • 270525Z 36004KT 330V030 9999 FEW042 13/10 Q1034 NOSIG
  • 270455Z 35005KT 310V010 CAVOK 12/10 Q1034 NOSIG
  • 270425Z 33004KT CAVOK 11/10 Q1034 NOSIG
  • 270355Z 33003KT CAVOK 10/09 Q1034 NOSIG

TAF TAF EHAM
Valide du 27 à 06h jusqu'au 28 à 12h UTC


270453Z 2706/2812 35006KT CAVOK
BECMG 2709/2712 36012KT
BECMG 2719/2722 04007KT
BECMG 2809/2812 05012KT



MET'MAP, la Météo Aéronautique d'un coup d'oeil ! - Copyright ORBIFLY Décembre 2007 - Disclaimer

ORBIFLY MET'MAP TEAM :

Programmation & Développement : Alexandra Zaïnal
Sur une idée originale de : Baudouin d'Aumeries
Assistance à la programmation : Marc-Olivier Méhu
Soutien technique & logistique : Manuel Goepfert

Contact : metmap@orbifly.com




SOURCES & CREDITS :

   NOAA